Time;durP1;ratioP1;P1;durP2;ratioP2;P2;SDS_P1;SDS_P2;PMS_P1;PMS_P2;Temp;Humidity;BMP_temperature;BMP_pressure;BME280_temperature;BME280_humidity;BME280_pressure;Samples;Min_cycle;Max_cycle;Signal;HPM_P1;HPM_P2
2022/08/05 00:00:12;;;;;;;;;5.67;5.00;;;;;25.45;91.20;101101.44;5074496;27;45566;-68
2022/08/05 00:02:38;;;;;;;;;7.00;7.00;;;;;25.41;89.54;101141.94;5071850;27;45472;-68
2022/08/05 00:05:03;;;;;;;;;7.00;6.67;;;;;24.60;92.82;101234.88;5081535;28;47871;-69
2022/08/05 00:07:29;;;;;;;;;5.00;5.00;;;;;24.42;98.43;101305.09;5094783;27;45453;-68
2022/08/05 00:09:54;;;;;;;;;8.00;7.00;;;;;24.86;96.85;101285.69;5091618;27;45468;-68
2022/08/05 00:12:19;;;;;;;;;5.00;4.00;;;;;24.90;92.95;101264.72;5096521;27;45366;-69
2022/08/05 00:14:45;;;;;;;;;8.67;5.00;;;;;25.06;90.90;101250.22;5091688;27;45339;-68
2022/08/05 00:17:10;;;;;;;;;5.67;4.67;;;;;25.01;84.74;101342.66;5095763;27;45444;-68
2022/08/05 00:19:36;;;;;;;;;9.00;5.00;;;;;24.97;90.27;101385.91;5092791;27;45477;-69
2022/08/05 00:22:02;;;;;;;;;5.00;4.00;;;;;25.11;92.71;101369.94;5077239;27;45362;-69
2022/08/05 00:24:27;;;;;;;;;6.33;4.00;;;;;25.17;88.04;101364.31;5070052;27;47611;-69
2022/08/05 00:26:53;;;;;;;;;8.67;6.00;;;;;25.15;88.09;101412.91;5077786;27;45254;-69
2022/08/05 00:29:19;;;;;;;;;4.00;4.00;;;;;24.86;89.51;101436.63;5090801;27;45304;-68
2022/08/05 00:31:44;;;;;;;;;4.67;4.67;;;;;24.71;89.49;101397.19;5081385;27;45334;-68
2022/08/05 00:34:10;;;;;;;;;5.33;4.67;;;;;25.06;86.00;101350.31;5080776;27;48831;-68
2022/08/05 00:36:35;;;;;;;;;3.00;3.00;;;;;25.02;85.24;101335.19;5093756;27;45429;-69
2022/08/05 00:39:01;;;;;;;;;4.00;4.00;;;;;25.08;86.32;101321.19;5086264;27;45286;-68
2022/08/05 00:41:31;;;;;;;;;5.00;4.00;;;;;25.08;85.24;101348.16;5074172;27;45488;-69
2022/08/05 00:43:57;;;;;;;;;5.33;2.67;;;;;24.71;87.31;101414.72;5086148;27;45674;-68
2022/08/05 00:46:23;;;;;;;;;4.67;4.67;;;;;24.58;87.19;101469.53;5088537;27;45242;-68
2022/08/05 00:48:49;;;;;;;;;5.00;4.00;;;;;24.52;88.85;101418.50;5096639;27;45318;-68
2022/08/05 00:51:14;;;;;;;;;4.67;4.67;;;;;24.53;89.73;101373.00;5070728;27;45373;-68
2022/08/05 00:53:40;;;;;;;;;4.00;4.00;;;;;24.88;84.89;101328.00;5098309;27;46552;-69
2022/08/05 00:56:06;;;;;;;;;6.00;6.00;;;;;24.66;87.67;101339.53;5088061;27;45222;-68
2022/08/05 00:58:31;;;;;;;;;6.67;4.00;;;;;24.41;90.10;101360.88;5081017;28;45440;-69
2022/08/05 01:00:56;;;;;;;;;5.00;4.00;;;;;24.60;88.76;101361.81;5088991;27;45393;-68
2022/08/05 01:03:23;;;;;;;;;4.00;4.00;;;;;24.55;89.85;101359.69;5103145;27;46414;-68
2022/08/05 01:05:49;;;;;;;;;9.00;7.33;;;;;24.43;86.67;101383.72;5090445;27;45337;-68
2022/08/05 01:08:14;;;;;;;;;6.00;4.00;;;;;24.32;87.67;101426.13;5078195;27;45353;-68
2022/08/05 01:10:54;;;;;;;;;4.33;4.33;;;;;24.32;89.22;101424.19;5094409;27;45496;-68
2022/08/05 01:13:30;;;;;;;;;4.00;4.00;;;;;24.41;87.01;101361.72;5106155;27;45738;-68
2022/08/05 01:15:58;;;;;;;;;6.00;6.00;;;;;23.98;89.57;101335.72;5100817;27;45336;-68
2022/08/05 01:18:41;;;;;;;;;4.00;4.00;;;;;23.55;96.63;101341.88;5074827;27;45390;-69
2022/08/05 01:21:24;;;;;;;;;4.67;2.67;;;;;23.71;97.91;101379.41;5101122;27;45397;-68
2022/08/05 01:24:10;;;;;;;;;6.00;5.00;;;;;23.93;95.61;101389.13;5091925;27;45984;-68
2022/08/05 01:26:58;;;;;;;;;4.00;4.00;;;;;24.16;90.36;101382.16;5097233;27;45405;-67
2022/08/05 01:29:29;;;;;;;;;3.33;3.33;;;;;24.35;89.47;101386.78;5098236;27;45440;-68
2022/08/05 01:32:00;;;;;;;;;6.00;4.33;;;;;24.54;85.35;101362.72;5076292;27;45506;-68
2022/08/05 01:34:47;;;;;;;;;4.00;4.00;;;;;24.53;88.94;101367.44;5087767;27;46219;-68
2022/08/05 01:37:21;;;;;;;;;9.33;5.00;;;;;24.40;91.92;101346.13;5096922;27;45714;-68
2022/08/05 01:39:49;;;;;;;;;6.00;3.00;;;;;24.52;89.98;101335.16;5087391;27;45495;-68
2022/08/05 01:42:18;;;;;;;;;6.00;6.00;;;;;24.61;87.38;101310.75;5098080;27;45540;-68
2022/08/05 01:44:45;;;;;;;;;6.00;6.00;;;;;24.44;86.47;101283.53;5093403;27;45340;-69
2022/08/05 01:47:13;;;;;;;;;4.00;4.00;;;;;24.30;87.38;101268.03;5078537;27;45463;-69
2022/08/05 01:49:41;;;;;;;;;8.33;4.67;;;;;24.36;87.44;101283.78;5095996;27;45279;-68
2022/08/05 01:52:07;;;;;;;;;4.33;4.33;;;;;23.95;88.82;101320.38;5098403;27;45380;-68
2022/08/05 01:54:43;;;;;;;;;4.33;4.33;;;;;24.12;91.01;101339.25;5098336;27;45421;-68
2022/08/05 01:57:10;;;;;;;;;5.33;4.00;;;;;24.14;85.39;101328.78;5079702;27;45633;-68
2022/08/05 01:59:39;;;;;;;;;6.67;5.67;;;;;24.12;88.16;101344.81;5097320;27;45586;-68
2022/08/05 02:02:05;;;;;;;;;4.33;4.33;;;;;24.14;85.99;101337.13;5095731;27;45520;-68
2022/08/05 02:04:33;;;;;;;;;8.00;5.00;;;;;24.12;84.95;101297.59;5098305;27;46425;-68
2022/08/05 02:06:59;;;;;;;;;6.67;5.33;;;;;24.28;83.77;101280.44;5095629;27;45353;-68
2022/08/05 02:09:25;;;;;;;;;9.00;7.00;;;;;24.20;85.11;101284.34;5098984;27;45373;-69
2022/08/05 02:12:01;;;;;;;;;4.67;4.67;;;;;23.94;86.09;101299.22;5095711;27;45543;-69
2022/08/05 02:14:36;;;;;;;;;6.00;6.00;;;;;24.03;85.85;101305.38;5090526;27;45391;-69
2022/08/05 02:17:14;;;;;;;;;10.00;7.33;;;;;24.05;85.44;101329.03;5091409;27;45439;-68
2022/08/05 02:19:49;;;;;;;;;6.00;4.00;;;;;24.17;87.73;101334.75;5090203;27;45239;-68
2022/08/05 02:22:25;;;;;;;;;5.00;4.00;;;;;24.20;85.68;101325.13;5092273;27;45227;-68
2022/08/05 02:24:54;;;;;;;;;5.00;5.00;;;;;24.32;85.63;101324.22;5090735;27;46407;-68
2022/08/05 02:27:21;;;;;;;;;5.00;4.00;;;;;24.25;82.12;101325.34;5093625;27;45370;-68
2022/08/05 02:29:48;;;;;;;;;3.67;3.67;;;;;24.27;85.41;101356.50;5088915;27;45291;-68
2022/08/05 02:32:19;;;;;;;;;5.67;4.67;;;;;24.30;86.60;101361.59;5098349;27;45529;-68
2022/08/05 02:34:45;;;;;;;;;5.00;5.00;;;;;24.23;83.67;101355.25;5089848;27;46753;-68
2022/08/05 02:37:12;;;;;;;;;5.00;5.00;;;;;24.26;84.84;101352.00;5093298;27;45875;-68
2022/08/05 02:39:39;;;;;;;;;5.33;5.33;;;;;24.29;84.10;101365.47;5090532;27;45428;-68
2022/08/05 02:42:06;;;;;;;;;5.33;5.00;;;;;24.22;88.51;101368.28;5100133;27;45330;-68
2022/08/05 02:44:36;;;;;;;;;5.67;4.00;;;;;24.00;83.09;101389.94;5081988;27;48457;-68
2022/08/05 02:47:04;;;;;;;;;5.00;3.67;;;;;24.16;83.73;101379.41;5096674;27;45604;-68
2022/08/05 02:49:33;;;;;;;;;4.67;3.67;;;;;24.13;84.09;101360.38;5082090;27;45415;-68
2022/08/05 02:52:01;;;;;;;;;3.67;3.67;;;;;24.04;81.30;101323.72;5094197;27;45559;-68
2022/08/05 02:54:27;;;;;;;;;4.00;4.00;;;;;23.97;85.08;101304.31;5099914;27;45472;-68
2022/08/05 02:56:53;;;;;;;;;7.00;5.33;;;;;23.82;84.15;101295.44;5094509;27;45460;-68
2022/08/05 02:59:20;;;;;;;;;7.00;6.00;;;;;23.82;84.89;101262.16;5101299;27;45243;-68
2022/08/05 03:01:50;;;;;;;;;5.00;4.00;;;;;23.91;83.94;101269.13;5083421;27;45458;-68
2022/08/05 03:04:18;;;;;;;;;5.00;5.00;;;;;23.59;84.76;101286.84;5072923;28;47428;-68
2022/08/05 03:06:43;;;;;;;;;6.00;6.00;;;;;23.63;86.45;101301.97;5089387;27;45559;-68
2022/08/05 03:09:12;;;;;;;;;5.67;4.67;;;;;23.67;85.31;101319.84;5089912;27;45352;-69
2022/08/05 03:11:40;;;;;;;;;6.33;4.67;;;;;23.75;85.36;101338.16;5073658;27;45660;-68
2022/08/05 03:14:06;;;;;;;;;7.00;4.00;;;;;23.90;85.02;101338.75;5096733;27;45321;-68
2022/08/05 03:16:31;;;;;;;;;5.33;3.67;;;;;23.94;84.60;101353.88;5095652;27;45414;-68
2022/08/05 03:18:56;;;;;;;;;4.67;4.67;;;;;24.03;82.29;101352.56;5088032;27;47551;-68
2022/08/05 03:21:22;;;;;;;;;4.00;4.00;;;;;24.00;83.84;101337.19;5091967;27;45586;-68
2022/08/05 03:23:47;;;;;;;;;3.33;3.33;;;;;23.99;86.16;101326.31;5071624;28;46551;-68
2022/08/05 03:26:13;;;;;;;;;6.33;6.33;;;;;23.85;80.96;101320.00;5078559;27;45333;-68
2022/08/05 03:28:38;;;;;;;;;3.67;3.67;;;;;23.76;82.45;101310.22;5090807;27;45485;-68
2022/08/05 03:31:04;;;;;;;;;7.67;6.00;;;;;23.80;82.70;101325.38;5086173;27;45322;-68
2022/08/05 03:33:30;;;;;;;;;5.67;4.33;;;;;23.67;81.02;101328.16;5086522;27;45445;-69
2022/08/05 03:35:57;;;;;;;;;4.33;4.00;;;;;23.74;81.65;101348.44;5086084;27;45384;-68
2022/08/05 03:38:24;;;;;;;;;3.67;3.67;;;;;23.79;85.93;101331.13;5092228;27;45476;-68
2022/08/05 03:40:51;;;;;;;;;5.00;3.67;;;;;23.73;81.19;101326.47;5085203;27;45373;-68
2022/08/05 03:43:19;;;;;;;;;6.67;5.00;;;;;23.86;82.13;101324.47;5092138;27;46094;-69
2022/08/05 03:45:44;;;;;;;;;6.00;4.00;;;;;23.85;81.42;101324.69;5083969;27;45579;-68
2022/08/05 03:48:10;;;;;;;;;4.33;4.33;;;;;23.81;81.66;101345.63;5100980;27;45329;-69
2022/08/05 03:50:49;;;;;;;;;5.33;4.00;;;;;23.83;82.65;101349.88;5082341;27;45440;-68
2022/08/05 03:53:24;;;;;;;;;3.67;3.00;;;;;23.84;84.92;101346.03;5097741;27;45425;-68
2022/08/05 03:56:02;;;;;;;;;5.33;5.00;;;;;23.51;81.88;101345.34;5088236;27;45337;-68
2022/08/05 03:58:32;;;;;;;;;4.00;4.00;;;;;23.56;80.66;101351.91;5100599;27;45232;-68
2022/08/05 04:01:00;;;;;;;;;2.33;2.33;;;;;23.30;80.98;101358.34;5089146;27;45497;-68
2022/08/05 04:03:27;;;;;;;;;4.00;4.00;;;;;23.43;81.32;101354.72;5078173;27;46111;-69
2022/08/05 04:05:54;;;;;;;;;4.67;4.67;;;;;23.49;82.37;101347.47;5087929;27;45462;-67
2022/08/05 04:08:19;;;;;;;;;3.00;3.00;;;;;23.44;80.06;101348.09;5074400;27;45342;-68
2022/08/05 04:10:45;;;;;;;;;4.33;4.33;;;;;23.44;85.06;101339.78;5087256;27;45407;-68
2022/08/05 04:13:10;;;;;;;;;6.00;6.00;;;;;23.32;81.61;101341.50;5101679;27;45368;-68
2022/08/05 04:15:36;;;;;;;;;3.33;3.33;;;;;23.29;80.23;101334.50;5085961;27;45347;-68
2022/08/05 04:18:05;;;;;;;;;6.33;5.33;;;;;23.43;81.53;101337.22;5100518;27;45440;-68
2022/08/05 04:20:31;;;;;;;;;6.00;5.00;;;;;23.29;81.45;101326.19;5083092;28;45454;-68
2022/08/05 04:22:56;;;;;;;;;6.33;6.33;;;;;23.21;81.79;101345.81;5089111;27;45420;-68
2022/08/05 04:25:21;;;;;;;;;5.67;5.67;;;;;22.92;81.95;101346.28;5083678;27;45346;-68
2022/08/05 04:27:47;;;;;;;;;6.00;4.33;;;;;23.12;80.61;101341.56;5098384;27;45404;-69
2022/08/05 04:30:12;;;;;;;;;5.00;5.00;;;;;22.93;83.88;101352.69;5084217;27;45249;-69
2022/08/05 04:32:38;;;;;;;;;6.33;6.00;;;;;22.86;85.87;101342.47;5099678;27;45377;-69
2022/08/05 04:35:04;;;;;;;;;3.00;3.00;;;;;22.92;83.66;101345.44;5088859;27;45293;-68
2022/08/05 04:37:29;;;;;;;;;6.00;6.00;;;;;23.04;82.49;101350.09;5100104;27;47682;-69
2022/08/05 04:39:55;;;;;;;;;7.00;3.67;;;;;22.88;82.97;101345.00;5095289;27;45535;-69
2022/08/05 04:42:21;;;;;;;;;7.33;7.33;;;;;22.70;83.18;101350.31;5102672;27;45921;-69
2022/08/05 04:44:46;;;;;;;;;9.33;8.00;;;;;22.59;82.30;101346.25;5102733;27;45276;-69
2022/08/05 04:47:11;;;;;;;;;6.67;6.67;;;;;22.49;83.95;101352.25;5100639;27;45570;-69
2022/08/05 04:49:39;;;;;;;;;6.67;6.33;;;;;22.68;86.51;101355.22;5101724;27;45317;-69
2022/08/05 04:52:05;;;;;;;;;7.00;7.00;;;;;22.65;84.45;101366.69;5092387;27;45474;-69
2022/08/05 04:54:31;;;;;;;;;6.00;3.67;;;;;22.60;83.05;101363.72;5090765;27;45488;-69
2022/08/05 04:56:56;;;;;;;;;6.00;6.00;;;;;22.53;83.13;101358.19;5074158;27;45437;-69
2022/08/05 04:59:21;;;;;;;;;6.67;4.00;;;;;22.57;85.00;101355.88;5092648;27;45323;-69
2022/08/05 05:01:48;;;;;;;;;11.00;7.67;;;;;22.66;85.42;101360.97;5093684;27;45505;-69
2022/08/05 05:04:14;;;;;;;;;8.00;7.00;;;;;22.73;87.84;101367.38;5073595;28;45307;-70
2022/08/05 05:06:39;;;;;;;;;7.00;6.00;;;;;22.50;83.57;101369.72;5079207;27;45393;-69
2022/08/05 05:09:05;;;;;;;;;6.33;6.33;;;;;22.34;84.19;101378.41;5087823;27;45653;-70
2022/08/05 05:11:30;;;;;;;;;7.00;6.00;;;;;22.55;85.11;101377.38;5080796;28;47527;-69
2022/08/05 05:13:55;;;;;;;;;8.00;6.67;;;;;22.57;83.56;101370.56;5077012;27;45466;-68
2022/08/05 05:16:20;;;;;;;;;6.67;3.00;;;;;22.48;83.92;101377.38;5080554;27;45309;-70
2022/08/05 05:18:46;;;;;;;;;8.00;7.33;;;;;22.45;84.37;101389.72;5095315;27;45360;-68
2022/08/05 05:21:11;;;;;;;;;7.00;7.00;;;;;22.33;84.42;101372.03;5073807;27;48227;-68
2022/08/05 05:23:36;;;;;;;;;10.00;6.67;;;;;22.67;86.36;101393.13;5084021;27;45668;-68
2022/08/05 05:26:02;;;;;;;;;8.67;7.00;;;;;22.89;87.19;101399.34;5091936;27;45347;-68
2022/08/05 05:28:27;;;;;;;;;10.00;9.33;;;;;22.96;84.63;101407.66;5075723;27;45670;-68
2022/08/05 05:30:53;;;;;;;;;6.33;6.33;;;;;22.95;85.18;101406.81;5087040;27;48286;-69
2022/08/05 05:33:18;;;;;;;;;7.00;7.00;;;;;22.90;85.42;101407.47;5097482;27;45368;-69
2022/08/05 05:35:45;;;;;;;;;9.00;9.00;;;;;22.93;84.71;101411.75;5085852;27;45361;-69
2022/08/05 05:38:11;;;;;;;;;6.67;5.33;;;;;22.85;82.99;101418.34;5083203;27;45399;-70
2022/08/05 05:40:36;;;;;;;;;6.00;6.00;;;;;22.83;85.18;101423.22;5086554;27;46029;-70
2022/08/05 05:43:02;;;;;;;;;7.67;7.67;;;;;22.92;83.52;101420.25;5098756;27;45338;-70
2022/08/05 05:45:28;;;;;;;;;9.33;8.33;;;;;22.92;84.53;101434.13;5085099;27;45490;-69
2022/08/05 05:47:53;;;;;;;;;8.00;7.00;;;;;22.80;83.20;101431.09;5084205;27;45294;-69
2022/08/05 05:50:19;;;;;;;;;6.00;6.00;;;;;22.89;83.14;101429.84;5095450;27;45413;-70
2022/08/05 05:52:46;;;;;;;;;11.00;9.33;;;;;23.19;83.23;101428.34;5100563;27;45413;-70
2022/08/05 05:55:12;;;;;;;;;5.67;5.33;;;;;23.14;79.86;101435.59;5096131;27;45168;-68
2022/08/05 05:57:39;;;;;;;;;6.00;5.00;;;;;23.10;82.08;101431.53;5082736;27;45611;-72
2022/08/05 06:00:07;;;;;;;;;7.67;6.00;;;;;22.82;79.81;101434.53;5081388;27;46591;-71
2022/08/05 06:02:33;;;;;;;;;13.67;12.33;;;;;22.56;82.84;101440.00;5081148;27;45491;-71
2022/08/05 06:04:58;;;;;;;;;13.00;8.00;;;;;22.74;82.35;101448.56;5096383;27;45385;-68
2022/08/05 06:07:23;;;;;;;;;7.00;7.00;;;;;22.69;79.68;101442.78;5099462;27;45318;-68
2022/08/05 06:09:49;;;;;;;;;11.67;9.00;;;;;22.75;80.54;101447.53;5077330;28;45587;-69
2022/08/05 06:12:14;;;;;;;;;6.00;6.00;;;;;23.09;82.77;101452.84;5099768;27;45352;-69
2022/08/05 06:14:43;;;;;;;;;8.00;8.00;;;;;23.26;79.72;101461.59;5092316;27;45583;-69
2022/08/05 06:17:09;;;;;;;;;8.67;8.33;;;;;23.42;78.83;101457.53;5093814;27;45399;-69
2022/08/05 06:19:35;;;;;;;;;7.00;5.33;;;;;23.49;77.14;101466.72;5098274;27;45492;-70
2022/08/05 06:22:00;;;;;;;;;10.33;7.33;;;;;23.66;77.24;101463.28;5093341;27;45398;-71
2022/08/05 06:24:26;;;;;;;;;6.00;6.00;;;;;23.64;74.36;101467.34;5093788;27;45397;-70
2022/08/05 06:26:51;;;;;;;;;6.67;6.67;;;;;23.55;75.39;101460.31;5096941;27;45354;-69
2022/08/05 06:29:16;;;;;;;;;11.33;7.33;;;;;24.05;73.14;101456.75;5095292;27;45389;-70
2022/08/05 06:31:41;;;;;;;;;7.00;7.00;;;;;24.31;72.37;101457.75;5089935;27;45516;-70
2022/08/05 06:34:07;;;;;;;;;7.33;6.00;;;;;24.60;71.47;101456.28;5093812;27;45424;-70
2022/08/05 06:36:32;;;;;;;;;6.67;5.00;;;;;24.57;71.04;101463.13;5098036;27;45397;-70
2022/08/05 06:38:57;;;;;;;;;7.00;7.00;;;;;24.49;72.70;101465.31;5095061;27;46335;-70
2022/08/05 06:41:23;;;;;;;;;8.00;7.33;;;;;24.53;71.46;101464.66;5087209;27;45866;-70
2022/08/05 06:43:49;;;;;;;;;6.67;6.67;;;;;24.32;71.10;101465.84;5095943;27;45892;-70
2022/08/05 06:46:15;;;;;;;;;10.33;5.67;;;;;24.31;70.81;101471.63;5087346;27;45493;-70
2022/08/05 06:48:40;;;;;;;;;11.00;8.33;;;;;24.50;71.94;101467.88;5096886;27;45909;-71
2022/08/05 06:51:06;;;;;;;;;10.33;8.00;;;;;24.64;69.11;101460.31;5087025;27;45438;-70
2022/08/05 06:53:31;;;;;;;;;0.00;0.00;;;;;24.54;70.47;101474.72;5098381;27;45397;-69
2022/08/05 06:55:58;;;;;;;;;7.67;7.00;;;;;24.48;69.17;101481.13;5085993;27;46097;-69
2022/08/05 06:58:25;;;;;;;;;9.00;9.00;;;;;24.55;69.36;101470.84;5072067;27;47207;-70
2022/08/05 07:00:51;;;;;;;;;10.67;9.67;;;;;24.50;70.34;101467.03;5084749;27;45306;-69
2022/08/05 07:03:16;;;;;;;;;12.00;10.67;;;;;24.42;72.55;101479.25;5095648;27;45409;-70
2022/08/05 07:05:42;;;;;;;;;12.33;9.00;;;;;24.56;69.76;101478.09;5079678;27;45471;-69
2022/08/05 07:08:07;;;;;;;;;9.33;8.00;;;;;24.25;69.77;101480.84;5096511;27;46004;-71
2022/08/05 07:10:32;;;;;;;;;16.00;9.00;;;;;24.39;71.13;101482.47;5101205;27;45206;-70
2022/08/05 07:18:26;;;;;;;;;11.00;11.00;;;;;24.74;69.62;101491.25;5093516;27;45524;-69
2022/08/05 07:20:51;;;;;;;;;12.33;9.00;;;;;24.95;70.53;101492.84;5084391;27;45436;-69
2022/08/05 07:23:16;;;;;;;;;10.00;8.67;;;;;24.71;69.53;101494.47;5099133;27;45379;-69
2022/08/05 07:25:42;;;;;;;;;12.67;9.00;;;;;24.76;69.60;101495.53;5087346;27;45180;-69
2022/08/05 07:28:07;;;;;;;;;13.00;10.67;;;;;24.86;72.20;101499.72;5080766;27;46897;-69
2022/08/05 07:30:33;;;;;;;;;8.33;7.00;;;;;25.01;69.96;101497.50;5083399;27;45342;-70
2022/08/05 07:33:00;;;;;;;;;9.33;9.33;;;;;25.13;68.00;101498.50;5099793;27;45420;-69
2022/08/05 07:35:26;;;;;;;;;11.33;10.00;;;;;24.77;68.24;101511.09;5086099;27;45319;-70
2022/08/05 07:37:51;;;;;;;;;8.00;8.00;;;;;24.81;67.30;101498.47;5098152;27;45404;-70
2022/08/05 07:40:16;;;;;;;;;8.00;7.67;;;;;25.07;68.26;101502.16;5092791;27;45435;-70
2022/08/05 07:42:42;;;;;;;;;7.67;7.00;;;;;25.05;66.68;101507.97;5074101;27;45385;-69
2022/08/05 07:45:07;;;;;;;;;10.00;6.67;;;;;24.98;67.13;101517.44;5103737;27;45323;-69
2022/08/05 07:47:33;;;;;;;;;8.00;7.00;;;;;25.10;67.41;101512.84;5086037;27;45412;-69
2022/08/05 07:49:58;;;;;;;;;10.00;6.33;;;;;25.30;67.60;101513.53;5089312;27;45487;-69
2022/08/05 07:52:23;;;;;;;;;6.67;6.00;;;;;25.33;67.26;101524.22;5081162;27;45994;-69
2022/08/05 07:54:49;;;;;;;;;3.33;3.33;;;;;25.55;64.94;101522.72;5090921;27;45278;-68
2022/08/05 07:57:14;;;;;;;;;13.00;10.00;;;;;25.55;65.97;101528.31;5093954;27;49992;-70
2022/08/05 07:59:39;;;;;;;;;10.67;9.00;;;;;25.53;67.95;101527.66;5091041;27;45402;-69
2022/08/05 08:02:06;;;;;;;;;10.33;9.00;;;;;25.74;64.74;101539.50;5094650;27;45684;-69
2022/08/05 08:04:32;;;;;;;;;7.00;7.00;;;;;25.89;63.50;101545.53;5092207;27;45406;-69
2022/08/05 08:06:59;;;;;;;;;6.00;5.33;;;;;26.03;63.65;101541.53;5088187;27;47709;-69
2022/08/05 08:09:25;;;;;;;;;7.00;6.67;;;;;26.16;62.74;101538.59;5093385;27;45210;-69
2022/08/05 08:11:50;;;;;;;;;9.00;8.00;;;;;26.29;62.70;101552.44;5097537;27;45480;-69
2022/08/05 08:14:15;;;;;;;;;8.33;6.67;;;;;26.30;59.94;101553.28;5085112;27;45556;-69
2022/08/05 08:16:41;;;;;;;;;7.33;6.00;;;;;26.25;60.87;101555.88;5100306;27;47619;-69
2022/08/05 08:19:07;;;;;;;;;7.67;6.33;;;;;26.50;60.16;101553.03;5087745;27;45405;-69
2022/08/05 08:21:32;;;;;;;;;9.00;8.00;;;;;26.67;60.79;101559.63;5089766;27;45422;-69
2022/08/05 08:23:58;;;;;;;;;11.33;10.00;;;;;26.63;59.98;101553.69;5078798;27;45458;-69
2022/08/05 08:26:23;;;;;;;;;8.00;6.00;;;;;26.72;60.25;101562.59;5074501;27;47403;-69
2022/08/05 08:28:48;;;;;;;;;10.67;9.00;;;;;27.00;57.15;101567.59;5083469;27;45270;-69
2022/08/05 08:31:14;;;;;;;;;7.33;7.33;;;;;27.20;58.23;101559.75;5081961;27;45336;-69
2022/08/05 08:33:39;;;;;;;;;8.00;8.00;;;;;27.27;56.30;101559.66;5076103;28;45315;-69
2022/08/05 08:36:06;;;;;;;;;9.33;7.67;;;;;27.36;56.88;101559.06;5085183;27;45486;-69
2022/08/05 08:38:31;;;;;;;;;9.00;8.00;;;;;27.38;57.01;101558.84;5090787;27;45409;-69
2022/08/05 08:40:58;;;;;;;;;8.00;7.00;;;;;27.44;54.93;101566.25;5094650;27;45866;-69
2022/08/05 08:43:25;;;;;;;;;7.00;7.00;;;;;27.61;55.58;101572.00;5097165;27;45579;-69
2022/08/05 08:45:52;;;;;;;;;6.67;6.33;;;;;27.08;55.33;101570.88;5083388;27;46071;-69
2022/08/05 08:48:19;;;;;;;;;8.33;7.33;;;;;27.22;57.17;101576.25;5090422;27;45275;-69
2022/08/05 08:50:46;;;;;;;;;8.67;6.00;;;;;27.59;57.24;101563.88;5072934;27;45445;-69
2022/08/05 08:53:15;;;;;;;;;9.67;8.33;;;;;28.05;54.26;101574.22;5093710;27;45416;-69
2022/08/05 08:55:41;;;;;;;;;14.67;9.00;;;;;28.16;55.63;101584.53;5063715;27;45332;-69
2022/08/05 08:58:09;;;;;;;;;7.67;6.33;;;;;28.57;53.93;101577.03;5094961;27;45431;-69
2022/08/05 09:00:35;;;;;;;;;9.00;7.00;;;;;28.67;52.01;101594.03;5071285;27;45317;-69
2022/08/05 09:03:03;;;;;;;;;7.00;6.00;;;;;28.80;51.32;101584.53;5094820;27;45538;-69
2022/08/05 09:05:29;;;;;;;;;8.67;7.00;;;;;28.81;51.68;101575.91;5082777;27;46363;-69
2022/08/05 09:07:54;;;;;;;;;7.67;6.33;;;;;28.92;50.07;101590.97;5092906;27;45373;-69
2022/08/05 09:10:21;;;;;;;;;9.00;6.00;;;;;29.18;48.59;101600.69;5087096;27;45479;-69
2022/08/05 09:12:47;;;;;;;;;7.00;5.00;;;;;29.16;48.87;101600.91;5091900;27;45227;-69
2022/08/05 09:15:12;;;;;;;;;9.67;8.67;;;;;28.92;48.64;101604.94;5095894;27;46242;-69
2022/08/05 09:17:39;;;;;;;;;12.00;11.00;;;;;28.74;48.14;101610.69;5091421;27;45313;-69
2022/08/05 09:20:05;;;;;;;;;10.33;10.33;;;;;28.93;48.04;101604.66;5090069;27;45334;-70
2022/08/05 09:23:09;;;;;;;;;10.67;9.33;;;;;28.70;48.89;101612.28;5096469;27;45362;-69
2022/08/05 09:25:58;;;;;;;;;10.33;9.00;;;;;28.96;49.11;101598.59;5091644;27;45572;-69
2022/08/05 09:28:26;;;;;;;;;5.67;4.33;;;;;29.42;48.52;101593.88;5091344;27;45240;-69
2022/08/05 09:30:55;;;;;;;;;10.33;9.00;;;;;29.59;48.23;101605.94;5086159;27;45456;-69
2022/08/05 09:33:22;;;;;;;;;13.67;12.67;;;;;29.82;48.29;101607.72;5095148;27;45297;-69
2022/08/05 09:36:02;;;;;;;;;16.33;12.67;;;;;29.52;47.54;101607.19;5085322;27;45313;-70
2022/08/05 09:38:28;;;;;;;;;10.67;9.67;;;;;29.74;48.15;101606.19;5098521;27;45332;-71
2022/08/05 09:41:05;;;;;;;;;9.67;9.67;;;;;30.34;47.84;101599.00;5085854;27;45339;-70
2022/08/05 09:43:36;;;;;;;;;9.67;9.67;;;;;30.75;44.12;101597.66;5102052;27;45418;-69
2022/08/05 09:46:05;;;;;;;;;13.00;11.33;;;;;30.44;46.21;101605.63;5090951;27;45544;-69
2022/08/05 09:48:32;;;;;;;;;10.33;7.67;;;;;29.83;45.88;101605.78;5089197;27;45410;-69
2022/08/05 09:51:02;;;;;;;;;10.67;10.00;;;;;30.12;47.13;101608.25;5095166;27;45263;-69
2022/08/05 09:53:29;;;;;;;;;11.33;9.33;;;;;30.82;45.25;101610.38;5081207;27;45495;-69
2022/08/05 09:55:59;;;;;;;;;12.33;11.67;;;;;30.81;45.08;101605.00;5098558;27;46158;-69
2022/08/05 09:58:26;;;;;;;;;9.00;9.00;;;;;31.00;44.35;101613.91;5092375;27;45215;-67
2022/08/05 10:01:03;;;;;;;;;11.00;9.00;;;;;30.16;43.75;101614.19;5077720;27;45335;-69
2022/08/05 10:03:28;;;;;;;;;9.00;9.00;;;;;30.36;43.88;101597.66;5095367;27;45425;-68
2022/08/05 10:06:09;;;;;;;;;8.33;7.00;;;;;30.87;41.96;101607.59;5086225;27;45838;-68
2022/08/05 10:08:37;;;;;;;;;9.33;7.00;;;;;30.86;43.16;101614.31;5096547;27;45305;-69
2022/08/05 10:11:11;;;;;;;;;10.33;9.67;;;;;31.03;41.58;101611.44;5086899;27;45440;-71
2022/08/05 10:13:37;;;;;;;;;11.00;10.67;;;;;31.47;40.96;101597.31;5091437;27;45397;-69
2022/08/05 10:16:05;;;;;;;;;9.33;9.33;;;;;31.43;40.92;101616.66;5100657;27;46137;-69
2022/08/05 10:18:32;;;;;;;;;7.33;7.33;;;;;31.81;38.07;101607.19;5094330;27;45401;-69
2022/08/05 10:21:05;;;;;;;;;7.00;7.00;;;;;31.94;39.79;101608.69;5086069;27;45526;-69
2022/08/05 10:23:33;;;;;;;;;7.00;7.00;;;;;32.20;37.77;101599.38;5073355;27;45405;-69
2022/08/05 10:26:02;;;;;;;;;9.00;8.00;;;;;32.42;38.38;101599.22;5089594;27;46203;-69
2022/08/05 10:28:29;;;;;;;;;6.00;6.00;;;;;31.84;37.14;101603.88;5095827;27;45253;-70
2022/08/05 10:30:55;;;;;;;;;9.00;7.33;;;;;31.49;38.30;101612.78;5076486;27;45323;-70
2022/08/05 10:33:24;;;;;;;;;4.33;4.33;;;;;31.25;39.23;101608.63;5096800;27;45437;-69
2022/08/05 10:35:50;;;;;;;;;27.75;22.00;;;;;31.53;39.50;101613.97;5084648;27;45496;-69
2022/08/05 10:38:19;;;;;;;;;8.33;6.33;;;;;32.28;39.07;101610.09;5081789;27;45552;-69
2022/08/05 10:40:50;;;;;;;;;9.00;7.00;;;;;32.07;37.86;101616.69;5090345;27;45423;-68
2022/08/05 10:43:22;;;;;;;;;6.67;6.33;;;;;32.26;37.30;101611.47;5100639;27;45399;-69
2022/08/05 10:45:59;;;;;;;;;5.67;5.67;;;;;32.79;37.87;101610.38;5090938;27;45527;-69
2022/08/05 10:48:30;;;;;;;;;7.00;7.00;;;;;32.73;36.11;101614.31;5091216;27;45279;-69
2022/08/05 10:50:57;;;;;;;;;5.67;5.67;;;;;33.20;35.28;101617.84;5086489;27;45761;-69
2022/08/05 10:53:54;;;;;;;;;10.67;9.33;;;;;33.14;35.05;101613.31;5074688;28;45437;-67
2022/08/05 10:56:27;;;;;;;;;6.33;5.67;;;;;33.23;34.30;101619.28;5074246;27;45455;-68
2022/08/05 10:58:52;;;;;;;;;9.33;8.00;;;;;33.66;33.59;101623.56;5098318;27;45409;-69
2022/08/05 11:01:38;;;;;;;;;6.67;6.67;;;;;33.96;33.86;101617.09;5086301;27;45552;-68
2022/08/05 11:04:13;;;;;;;;;9.33;8.00;;;;;33.84;32.99;101616.50;5097011;27;45639;-67
2022/08/05 11:07:03;;;;;;;;;7.00;7.00;;;;;34.04;33.77;101624.13;5091096;27;45643;-68
2022/08/05 11:09:37;;;;;;;;;8.00;6.00;;;;;33.42;33.25;101633.66;5090574;27;45789;-67
2022/08/05 11:12:03;;;;;;;;;7.33;6.33;;;;;32.80;32.79;101637.41;5093934;27;45586;-67
2022/08/05 11:14:32;;;;;;;;;8.67;8.67;;;;;31.78;35.25;101635.00;5075010;28;45385;-68
2022/08/05 11:17:25;;;;;;;;;6.67;6.67;;;;;32.44;34.78;101642.81;5092662;27;45503;-67
2022/08/05 11:19:57;;;;;;;;;9.33;6.67;;;;;31.77;34.21;101647.34;5088346;27;45441;-67
2022/08/05 11:22:38;;;;;;;;;7.33;7.33;;;;;32.22;34.29;101638.47;5093896;27;45329;-67
2022/08/05 11:25:31;;;;;;;;;7.00;5.67;;;;;32.67;33.41;101637.84;5086550;27;45615;-67
2022/08/05 11:28:16;;;;;;;;;11.00;9.67;;;;;33.21;33.02;101644.91;5095733;27;45504;-67
2022/08/05 11:30:57;;;;;;;;;4.00;4.00;;;;;32.57;32.81;101635.84;5087130;27;45334;-68
2022/08/05 11:33:51;;;;;;;;;8.33;6.67;;;;;32.63;34.08;101634.75;5079771;27;45364;-68